sensor_id;sensor_type;location;lat;lon;timestamp;temperature;humidity
23827;DHT22;12094;50.822;4.376;2022-10-31T00:01:33;15.30;99.90
23827;DHT22;12094;50.822;4.376;2022-10-31T00:04:00;15.30;99.90
23827;DHT22;12094;50.822;4.376;2022-10-31T00:06:28;15.20;99.90
23827;DHT22;12094;50.822;4.376;2022-10-31T00:08:58;15.30;99.90
23827;DHT22;12094;50.822;4.376;2022-10-31T00:11:30;15.20;99.90
23827;DHT22;12094;50.822;4.376;2022-10-31T00:14:00;15.20;99.90
23827;DHT22;12094;50.822;4.376;2022-10-31T00:16:31;15.30;99.90
23827;DHT22;12094;50.822;4.376;2022-10-31T00:19:03;15.20;99.90
23827;DHT22;12094;50.822;4.376;2022-10-31T00:21:35;15.20;99.90
23827;DHT22;12094;50.822;4.376;2022-10-31T00:24:02;15.10;99.90
23827;DHT22;12094;50.822;4.376;2022-10-31T00:26:31;15.10;99.90
23827;DHT22;12094;50.822;4.376;2022-10-31T00:28:59;15.10;99.90
23827;DHT22;12094;50.822;4.376;2022-10-31T00:31:29;15.00;99.90
23827;DHT22;12094;50.822;4.376;2022-10-31T00:33:58;15.10;99.90
23827;DHT22;12094;50.822;4.376;2022-10-31T00:36:27;15.00;99.90
23827;DHT22;12094;50.822;4.376;2022-10-31T00:38:55;15.00;99.90
23827;DHT22;12094;50.822;4.376;2022-10-31T00:41:26;15.00;99.90
23827;DHT22;12094;50.822;4.376;2022-10-31T00:43:54;15.00;99.90
23827;DHT22;12094;50.822;4.376;2022-10-31T00:46:22;14.90;99.90
23827;DHT22;12094;50.822;4.376;2022-10-31T00:48:51;14.90;99.90
23827;DHT22;12094;50.822;4.376;2022-10-31T00:51:20;15.00;99.90
23827;DHT22;12094;50.822;4.376;2022-10-31T00:53:47;14.90;99.90
23827;DHT22;12094;50.822;4.376;2022-10-31T00:56:15;14.90;99.90
23827;DHT22;12094;50.822;4.376;2022-10-31T00:58:44;14.90;99.90
23827;DHT22;12094;50.822;4.376;2022-10-31T01:01:12;14.90;99.90
23827;DHT22;12094;50.822;4.376;2022-10-31T01:03:40;14.90;99.90
23827;DHT22;12094;50.822;4.376;2022-10-31T01:06:12;14.90;99.90
23827;DHT22;12094;50.822;4.376;2022-10-31T01:08:41;14.80;99.90
23827;DHT22;12094;50.822;4.376;2022-10-31T01:11:19;14.70;99.90
23827;DHT22;12094;50.822;4.376;2022-10-31T01:13:47;14.70;99.90
23827;DHT22;12094;50.822;4.376;2022-10-31T01:16:19;14.70;99.90
23827;DHT22;12094;50.822;4.376;2022-10-31T01:18:52;14.70;99.90
23827;DHT22;12094;50.822;4.376;2022-10-31T01:21:24;14.60;99.90
23827;DHT22;12094;50.822;4.376;2022-10-31T01:23:54;14.70;99.90
23827;DHT22;12094;50.822;4.376;2022-10-31T01:26:25;14.70;99.90
23827;DHT22;12094;50.822;4.376;2022-10-31T01:28:56;14.70;99.90
23827;DHT22;12094;50.822;4.376;2022-10-31T01:31:27;14.70;99.90
23827;DHT22;12094;50.822;4.376;2022-10-31T01:33:56;14.70;99.90
23827;DHT22;12094;50.822;4.376;2022-10-31T01:36:30;14.60;99.90
23827;DHT22;12094;50.822;4.376;2022-10-31T01:39:01;14.70;99.90
23827;DHT22;12094;50.822;4.376;2022-10-31T01:41:30;14.70;99.90
23827;DHT22;12094;50.822;4.376;2022-10-31T01:47:08;14.60;99.90
23827;DHT22;12094;50.822;4.376;2022-10-31T01:49:50;14.60;99.90
23827;DHT22;12094;50.822;4.376;2022-10-31T01:52:24;14.50;99.90
23827;DHT22;12094;50.822;4.376;2022-10-31T01:55:03;14.60;99.90
23827;DHT22;12094;50.822;4.376;2022-10-31T01:57:32;14.70;99.90
23827;DHT22;12094;50.822;4.376;2022-10-31T02:00:04;14.60;99.90
23827;DHT22;12094;50.822;4.376;2022-10-31T02:02:41;14.50;99.90
23827;DHT22;12094;50.822;4.376;2022-10-31T02:05:12;14.50;99.90
23827;DHT22;12094;50.822;4.376;2022-10-31T02:08:13;14.40;99.90
23827;DHT22;12094;50.822;4.376;2022-10-31T02:10:44;14.40;99.90
23827;DHT22;12094;50.822;4.376;2022-10-31T02:13:13;14.40;99.90
23827;DHT22;12094;50.822;4.376;2022-10-31T02:15:55;14.40;99.90
23827;DHT22;12094;50.822;4.376;2022-10-31T02:18:26;14.40;99.90
23827;DHT22;12094;50.822;4.376;2022-10-31T02:21:04;14.40;99.90
23827;DHT22;12094;50.822;4.376;2022-10-31T02:24:06;14.30;99.90
23827;DHT22;12094;50.822;4.376;2022-10-31T02:32:31;14.40;99.90
23827;DHT22;12094;50.822;4.376;2022-10-31T02:35:23;14.50;99.90
23827;DHT22;12094;50.822;4.376;2022-10-31T02:41:25;14.40;99.90
23827;DHT22;12094;50.822;4.376;2022-10-31T02:44:05;14.40;99.90
23827;DHT22;12094;50.822;4.376;2022-10-31T02:46:44;14.40;99.90
23827;DHT22;12094;50.822;4.376;2022-10-31T02:52:24;14.20;99.90
23827;DHT22;12094;50.822;4.376;2022-10-31T02:54:53;14.20;99.90
23827;DHT22;12094;50.822;4.376;2022-10-31T02:57:25;14.20;99.90
23827;DHT22;12094;50.822;4.376;2022-10-31T02:59:58;14.30;99.90
23827;DHT22;12094;50.822;4.376;2022-10-31T03:02:43;14.30;99.90
23827;DHT22;12094;50.822;4.376;2022-10-31T03:13:20;14.20;99.90
23827;DHT22;12094;50.822;4.376;2022-10-31T03:15:51;14.10;99.90
23827;DHT22;12094;50.822;4.376;2022-10-31T03:18:28;14.10;99.90
23827;DHT22;12094;50.822;4.376;2022-10-31T03:23:32;14.20;99.90
23827;DHT22;12094;50.822;4.376;2022-10-31T03:26:05;14.30;99.90
23827;DHT22;12094;50.822;4.376;2022-10-31T03:28:49;14.20;99.90
23827;DHT22;12094;50.822;4.376;2022-10-31T03:31:25;14.00;99.90
23827;DHT22;12094;50.822;4.376;2022-10-31T03:33:56;13.80;99.90
23827;DHT22;12094;50.822;4.376;2022-10-31T03:36:34;13.70;99.90
23827;DHT22;12094;50.822;4.376;2022-10-31T03:39:10;13.60;99.90
23827;DHT22;12094;50.822;4.376;2022-10-31T03:41:47;13.70;99.90
23827;DHT22;12094;50.822;4.376;2022-10-31T03:44:19;13.70;99.90
23827;DHT22;12094;50.822;4.376;2022-10-31T03:46:56;13.70;99.90
23827;DHT22;12094;50.822;4.376;2022-10-31T03:49:24;13.70;99.90
23827;DHT22;12094;50.822;4.376;2022-10-31T03:52:09;13.70;99.90
23827;DHT22;12094;50.822;4.376;2022-10-31T03:54:45;13.90;99.90
23827;DHT22;12094;50.822;4.376;2022-10-31T03:57:25;13.80;99.90
23827;DHT22;12094;50.822;4.376;2022-10-31T04:02:35;13.90;99.90
23827;DHT22;12094;50.822;4.376;2022-10-31T04:05:07;13.90;99.90
23827;DHT22;12094;50.822;4.376;2022-10-31T04:07:37;13.70;99.90
23827;DHT22;12094;50.822;4.376;2022-10-31T04:10:13;13.60;99.90
23827;DHT22;12094;50.822;4.376;2022-10-31T04:12:46;13.60;99.90
23827;DHT22;12094;50.822;4.376;2022-10-31T04:15:22;13.60;99.90
23827;DHT22;12094;50.822;4.376;2022-10-31T04:17:53;13.70;99.90
23827;DHT22;12094;50.822;4.376;2022-10-31T04:20:33;13.80;99.90
23827;DHT22;12094;50.822;4.376;2022-10-31T04:23:01;13.80;99.90
23827;DHT22;12094;50.822;4.376;2022-10-31T04:25:31;13.80;99.90
23827;DHT22;12094;50.822;4.376;2022-10-31T04:28:01;13.80;99.90
23827;DHT22;12094;50.822;4.376;2022-10-31T04:30:32;13.80;99.90
23827;DHT22;12094;50.822;4.376;2022-10-31T04:33:01;13.70;99.90
23827;DHT22;12094;50.822;4.376;2022-10-31T04:35:31;13.70;99.90
23827;DHT22;12094;50.822;4.376;2022-10-31T04:38:01;13.70;99.90
23827;DHT22;12094;50.822;4.376;2022-10-31T04:40:28;13.60;99.90
23827;DHT22;12094;50.822;4.376;2022-10-31T04:43:15;13.60;99.90
23827;DHT22;12094;50.822;4.376;2022-10-31T04:45:47;13.60;99.90
23827;DHT22;12094;50.822;4.376;2022-10-31T04:48:14;13.60;99.90
23827;DHT22;12094;50.822;4.376;2022-10-31T04:50:44;13.70;99.90
23827;DHT22;12094;50.822;4.376;2022-10-31T04:53:13;13.80;99.90
23827;DHT22;12094;50.822;4.376;2022-10-31T04:56:19;13.80;99.90
23827;DHT22;12094;50.822;4.376;2022-10-31T04:58:50;13.80;99.90
23827;DHT22;12094;50.822;4.376;2022-10-31T05:01:19;13.70;99.90
23827;DHT22;12094;50.822;4.376;2022-10-31T05:03:49;13.70;99.90
23827;DHT22;12094;50.822;4.376;2022-10-31T05:06:16;13.70;99.90
23827;DHT22;12094;50.822;4.376;2022-10-31T05:08:43;13.70;99.90
23827;DHT22;12094;50.822;4.376;2022-10-31T05:11:13;13.80;99.90
23827;DHT22;12094;50.822;4.376;2022-10-31T05:13:46;13.80;99.90
23827;DHT22;12094;50.822;4.376;2022-10-31T05:16:56;13.90;99.90
23827;DHT22;12094;50.822;4.376;2022-10-31T05:19:54;13.90;99.90
23827;DHT22;12094;50.822;4.376;2022-10-31T05:22:53;14.00;99.90
23827;DHT22;12094;50.822;4.376;2022-10-31T05:25:25;13.90;99.90
23827;DHT22;12094;50.822;4.376;2022-10-31T05:27:55;13.90;99.90
23827;DHT22;12094;50.822;4.376;2022-10-31T05:30:25;13.90;99.90
23827;DHT22;12094;50.822;4.376;2022-10-31T05:32:54;14.00;99.90
23827;DHT22;12094;50.822;4.376;2022-10-31T05:35:55;13.90;99.90
23827;DHT22;12094;50.822;4.376;2022-10-31T05:38:31;13.80;99.90
23827;DHT22;12094;50.822;4.376;2022-10-31T05:41:07;13.90;99.90
23827;DHT22;12094;50.822;4.376;2022-10-31T05:43:41;13.70;99.90
23827;DHT22;12094;50.822;4.376;2022-10-31T05:46:09;13.80;99.90
23827;DHT22;12094;50.822;4.376;2022-10-31T05:48:58;13.80;99.90
23827;DHT22;12094;50.822;4.376;2022-10-31T05:51:50;13.70;99.90
23827;DHT22;12094;50.822;4.376;2022-10-31T05:54:19;13.70;99.90
23827;DHT22;12094;50.822;4.376;2022-10-31T05:56:47;13.70;99.90
23827;DHT22;12094;50.822;4.376;2022-10-31T05:59:15;13.80;99.90
23827;DHT22;12094;50.822;4.376;2022-10-31T06:01:44;13.90;99.90
23827;DHT22;12094;50.822;4.376;2022-10-31T06:04:46;13.90;99.90
23827;DHT22;12094;50.822;4.376;2022-10-31T06:07:15;14.00;99.90
23827;DHT22;12094;50.822;4.376;2022-10-31T06:09:42;14.00;99.90
23827;DHT22;12094;50.822;4.376;2022-10-31T06:12:11;14.10;99.90
23827;DHT22;12094;50.822;4.376;2022-10-31T06:14:59;14.20;99.90
23827;DHT22;12094;50.822;4.376;2022-10-31T06:17:27;14.10;99.90
23827;DHT22;12094;50.822;4.376;2022-10-31T06:20:15;14.10;99.90
23827;DHT22;12094;50.822;4.376;2022-10-31T06:22:56;14.10;99.90
23827;DHT22;12094;50.822;4.376;2022-10-31T06:25:25;14.10;99.90
23827;DHT22;12094;50.822;4.376;2022-10-31T06:27:52;14.20;99.90
23827;DHT22;12094;50.822;4.376;2022-10-31T06:30:23;14.20;99.90
23827;DHT22;12094;50.822;4.376;2022-10-31T06:32:54;14.20;99.90
23827;DHT22;12094;50.822;4.376;2022-10-31T06:35:22;14.20;99.90
23827;DHT22;12094;50.822;4.376;2022-10-31T06:37:54;14.20;99.90
23827;DHT22;12094;50.822;4.376;2022-10-31T06:40:35;14.30;99.90
23827;DHT22;12094;50.822;4.376;2022-10-31T06:43:24;14.30;99.90
23827;DHT22;12094;50.822;4.376;2022-10-31T06:46:06;14.40;99.90
23827;DHT22;12094;50.822;4.376;2022-10-31T06:48:40;14.30;99.90
23827;DHT22;12094;50.822;4.376;2022-10-31T06:51:20;14.30;99.90
23827;DHT22;12094;50.822;4.376;2022-10-31T06:53:53;14.40;99.90
23827;DHT22;12094;50.822;4.376;2022-10-31T06:56:23;14.20;99.90
23827;DHT22;12094;50.822;4.376;2022-10-31T06:58:56;14.10;99.90
23827;DHT22;12094;50.822;4.376;2022-10-31T07:01:53;14.10;99.90
23827;DHT22;12094;50.822;4.376;2022-10-31T07:04:23;14.10;99.90
23827;DHT22;12094;50.822;4.376;2022-10-31T07:06:51;14.10;99.90
23827;DHT22;12094;50.822;4.376;2022-10-31T07:09:21;14.00;99.90
23827;DHT22;12094;50.822;4.376;2022-10-31T07:11:52;14.10;99.90
23827;DHT22;12094;50.822;4.376;2022-10-31T07:14:20;14.20;99.90
23827;DHT22;12094;50.822;4.376;2022-10-31T07:16:49;14.20;99.90
23827;DHT22;12094;50.822;4.376;2022-10-31T07:19:22;14.40;99.90
23827;DHT22;12094;50.822;4.376;2022-10-31T07:21:49;14.50;99.90
23827;DHT22;12094;50.822;4.376;2022-10-31T07:24:17;14.50;99.90
23827;DHT22;12094;50.822;4.376;2022-10-31T07:27:08;14.50;99.90
23827;DHT22;12094;50.822;4.376;2022-10-31T07:29:35;14.60;99.90
23827;DHT22;12094;50.822;4.376;2022-10-31T07:32:10;14.70;99.90
23827;DHT22;12094;50.822;4.376;2022-10-31T07:35:02;14.60;99.90
23827;DHT22;12094;50.822;4.376;2022-10-31T07:37:43;14.50;99.90
23827;DHT22;12094;50.822;4.376;2022-10-31T07:40:17;14.30;99.90
23827;DHT22;12094;50.822;4.376;2022-10-31T07:42:47;14.40;99.90
23827;DHT22;12094;50.822;4.376;2022-10-31T07:45:52;14.40;99.90
23827;DHT22;12094;50.822;4.376;2022-10-31T07:48:52;14.50;99.90
23827;DHT22;12094;50.822;4.376;2022-10-31T07:51:37;14.60;99.90
23827;DHT22;12094;50.822;4.376;2022-10-31T07:54:30;14.60;99.90
23827;DHT22;12094;50.822;4.376;2022-10-31T07:56:58;14.80;99.90
23827;DHT22;12094;50.822;4.376;2022-10-31T07:59:25;14.90;99.90
23827;DHT22;12094;50.822;4.376;2022-10-31T08:01:54;15.00;99.90
23827;DHT22;12094;50.822;4.376;2022-10-31T08:04:29;15.10;99.90
23827;DHT22;12094;50.822;4.376;2022-10-31T08:07:17;15.10;99.90
23827;DHT22;12094;50.822;4.376;2022-10-31T08:09:51;15.10;99.90
23827;DHT22;12094;50.822;4.376;2022-10-31T08:12:22;15.30;99.90
23827;DHT22;12094;50.822;4.376;2022-10-31T08:14:51;15.10;99.90
23827;DHT22;12094;50.822;4.376;2022-10-31T08:17:22;15.10;99.90
23827;DHT22;12094;50.822;4.376;2022-10-31T08:19:58;15.20;99.90
23827;DHT22;12094;50.822;4.376;2022-10-31T08:22:40;15.20;99.90
23827;DHT22;12094;50.822;4.376;2022-10-31T08:25:10;15.30;99.90
23827;DHT22;12094;50.822;4.376;2022-10-31T08:28:05;15.40;99.90
23827;DHT22;12094;50.822;4.376;2022-10-31T08:34:40;15.50;99.90
23827;DHT22;12094;50.822;4.376;2022-10-31T08:37:36;15.40;99.90
23827;DHT22;12094;50.822;4.376;2022-10-31T08:40:06;15.40;99.90
23827;DHT22;12094;50.822;4.376;2022-10-31T08:42:35;15.40;99.90
23827;DHT22;12094;50.822;4.376;2022-10-31T08:45:04;15.50;99.90
23827;DHT22;12094;50.822;4.376;2022-10-31T08:47:34;15.50;99.90
23827;DHT22;12094;50.822;4.376;2022-10-31T08:50:02;15.60;99.90
23827;DHT22;12094;50.822;4.376;2022-10-31T08:52:32;15.80;99.90
23827;DHT22;12094;50.822;4.376;2022-10-31T08:55:26;15.80;99.90
23827;DHT22;12094;50.822;4.376;2022-10-31T08:58:04;15.60;99.90
23827;DHT22;12094;50.822;4.376;2022-10-31T09:00:46;15.50;99.90
23827;DHT22;12094;50.822;4.376;2022-10-31T09:03:21;15.40;99.90
23827;DHT22;12094;50.822;4.376;2022-10-31T09:05:58;15.50;99.90
23827;DHT22;12094;50.822;4.376;2022-10-31T09:08:29;15.40;99.90
23827;DHT22;12094;50.822;4.376;2022-10-31T09:10:58;15.50;99.90
23827;DHT22;12094;50.822;4.376;2022-10-31T09:13:45;15.60;99.90
23827;DHT22;12094;50.822;4.376;2022-10-31T09:16:36;15.70;99.90
23827;DHT22;12094;50.822;4.376;2022-10-31T09:19:06;15.80;99.90
23827;DHT22;12094;50.822;4.376;2022-10-31T09:21:38;15.80;99.90
23827;DHT22;12094;50.822;4.376;2022-10-31T09:24:06;15.90;99.90
23827;DHT22;12094;50.822;4.376;2022-10-31T09:26:33;15.90;99.90
23827;DHT22;12094;50.822;4.376;2022-10-31T09:29:06;16.00;99.90
23827;DHT22;12094;50.822;4.376;2022-10-31T09:31:37;16.00;99.90
23827;DHT22;12094;50.822;4.376;2022-10-31T09:34:29;16.00;99.90
23827;DHT22;12094;50.822;4.376;2022-10-31T09:37:07;16.00;99.90
23827;DHT22;12094;50.822;4.376;2022-10-31T09:39:34;16.00;99.90
23827;DHT22;12094;50.822;4.376;2022-10-31T09:46:04;15.90;99.90
23827;DHT22;12094;50.822;4.376;2022-10-31T09:49:01;16.00;99.90
23827;DHT22;12094;50.822;4.376;2022-10-31T09:51:56;16.10;99.90
23827;DHT22;12094;50.822;4.376;2022-10-31T09:54:41;16.30;99.90
23827;DHT22;12094;50.822;4.376;2022-10-31T09:57:14;16.20;99.90
23827;DHT22;12094;50.822;4.376;2022-10-31T09:59:47;16.30;99.90
23827;DHT22;12094;50.822;4.376;2022-10-31T10:02:29;16.20;99.90
23827;DHT22;12094;50.822;4.376;2022-10-31T10:05:14;16.20;99.90
23827;DHT22;12094;50.822;4.376;2022-10-31T10:11:22;16.40;99.90
23827;DHT22;12094;50.822;4.376;2022-10-31T10:17:39;16.70;99.90
23827;DHT22;12094;50.822;4.376;2022-10-31T10:23:29;16.80;99.90
23827;DHT22;12094;50.822;4.376;2022-10-31T10:26:13;17.00;99.90
23827;DHT22;12094;50.822;4.376;2022-10-31T10:28:47;17.20;99.90
23827;DHT22;12094;50.822;4.376;2022-10-31T10:31:17;17.30;99.90
23827;DHT22;12094;50.822;4.376;2022-10-31T10:36:39;17.50;99.90
23827;DHT22;12094;50.822;4.376;2022-10-31T10:39:19;17.60;99.90
23827;DHT22;12094;50.822;4.376;2022-10-31T10:41:49;17.40;99.90
23827;DHT22;12094;50.822;4.376;2022-10-31T10:44:39;17.20;99.90
23827;DHT22;12094;50.822;4.376;2022-10-31T10:47:34;17.00;99.90
23827;DHT22;12094;50.822;4.376;2022-10-31T10:50:34;17.20;99.90
23827;DHT22;12094;50.822;4.376;2022-10-31T10:57:03;17.30;99.90
23827;DHT22;12094;50.822;4.376;2022-10-31T10:58:57;17.40;99.90
23827;DHT22;12094;50.822;4.376;2022-10-31T11:01:24;17.40;99.90
23827;DHT22;12094;50.822;4.376;2022-10-31T11:03:52;17.30;99.90
23827;DHT22;12094;50.822;4.376;2022-10-31T11:06:21;17.40;99.90
23827;DHT22;12094;50.822;4.376;2022-10-31T11:08:52;17.60;99.90
23827;DHT22;12094;50.822;4.376;2022-10-31T11:11:28;17.60;99.90
23827;DHT22;12094;50.822;4.376;2022-10-31T11:14:22;17.80;99.90
23827;DHT22;12094;50.822;4.376;2022-10-31T11:16:54;17.90;99.90
23827;DHT22;12094;50.822;4.376;2022-10-31T11:19:24;17.90;99.90
23827;DHT22;12094;50.822;4.376;2022-10-31T11:22:07;18.10;99.90
23827;DHT22;12094;50.822;4.376;2022-10-31T11:24:41;18.10;99.90
23827;DHT22;12094;50.822;4.376;2022-10-31T11:31:08;18.40;99.90
23827;DHT22;12094;50.822;4.376;2022-10-31T11:33:44;18.50;99.90
23827;DHT22;12094;50.822;4.376;2022-10-31T11:39:21;18.80;99.90
23827;DHT22;12094;50.822;4.376;2022-10-31T11:41:52;18.80;99.90
23827;DHT22;12094;50.822;4.376;2022-10-31T11:44:29;18.80;99.90
23827;DHT22;12094;50.822;4.376;2022-10-31T11:46:59;18.80;99.90
23827;DHT22;12094;50.822;4.376;2022-10-31T11:49:47;18.90;99.90
23827;DHT22;12094;50.822;4.376;2022-10-31T11:55:02;18.80;99.90
23827;DHT22;12094;50.822;4.376;2022-10-31T11:57:52;18.80;99.90
23827;DHT22;12094;50.822;4.376;2022-10-31T12:00:34;19.00;99.90
23827;DHT22;12094;50.822;4.376;2022-10-31T12:05:42;19.50;99.90
23827;DHT22;12094;50.822;4.376;2022-10-31T12:08:12;19.50;99.90
23827;DHT22;12094;50.822;4.376;2022-10-31T12:11:10;19.50;99.90
23827;DHT22;12094;50.822;4.376;2022-10-31T12:16:25;20.90;99.90
23827;DHT22;12094;50.822;4.376;2022-10-31T12:19:05;21.70;99.90
23827;DHT22;12094;50.822;4.376;2022-10-31T12:21:59;22.30;99.90
23827;DHT22;12094;50.822;4.376;2022-10-31T12:30:28;24.30;99.90
23827;DHT22;12094;50.822;4.376;2022-10-31T12:33:23;24.20;99.90
23827;DHT22;12094;50.822;4.376;2022-10-31T12:49:22;22.20;99.90
23827;DHT22;12094;50.822;4.376;2022-10-31T12:55:51;21.70;99.90
23827;DHT22;12094;50.822;4.376;2022-10-31T12:58:37;21.50;99.90
23827;DHT22;12094;50.822;4.376;2022-10-31T13:01:19;21.40;99.90
23827;DHT22;12094;50.822;4.376;2022-10-31T13:03:58;21.10;99.90
23827;DHT22;12094;50.822;4.376;2022-10-31T13:06:36;20.90;99.90
23827;DHT22;12094;50.822;4.376;2022-10-31T13:09:13;20.70;99.90
23827;DHT22;12094;50.822;4.376;2022-10-31T13:11:55;20.50;99.90
23827;DHT22;12094;50.822;4.376;2022-10-31T13:14:28;20.50;99.90
23827;DHT22;12094;50.822;4.376;2022-10-31T13:17:00;20.30;99.90
23827;DHT22;12094;50.822;4.376;2022-10-31T13:19:41;20.30;99.90
23827;DHT22;12094;50.822;4.376;2022-10-31T13:24:55;20.10;99.90
23827;DHT22;12094;50.822;4.376;2022-10-31T13:27:26;20.10;99.90
23827;DHT22;12094;50.822;4.376;2022-10-31T13:30:05;20.10;99.90
23827;DHT22;12094;50.822;4.376;2022-10-31T13:35:35;20.20;99.90
23827;DHT22;12094;50.822;4.376;2022-10-31T13:44:18;19.70;99.90
23827;DHT22;12094;50.822;4.376;2022-10-31T13:46:48;19.80;99.90
23827;DHT22;12094;50.822;4.376;2022-10-31T13:54:48;19.60;99.90
23827;DHT22;12094;50.822;4.376;2022-10-31T13:57:22;19.70;99.90
23827;DHT22;12094;50.822;4.376;2022-10-31T14:02:47;19.80;99.90
23827;DHT22;12094;50.822;4.376;2022-10-31T14:05:30;19.80;99.90
23827;DHT22;12094;50.822;4.376;2022-10-31T14:08:02;19.70;99.90
23827;DHT22;12094;50.822;4.376;2022-10-31T14:10:39;19.80;99.90
23827;DHT22;12094;50.822;4.376;2022-10-31T14:13:38;19.90;99.90
23827;DHT22;12094;50.822;4.376;2022-10-31T14:16:20;19.80;99.90
23827;DHT22;12094;50.822;4.376;2022-10-31T14:19:04;19.80;99.90
23827;DHT22;12094;50.822;4.376;2022-10-31T14:21:39;19.80;99.90
23827;DHT22;12094;50.822;4.376;2022-10-31T14:31:58;19.70;99.90
23827;DHT22;12094;50.822;4.376;2022-10-31T14:34:34;19.70;99.90
23827;DHT22;12094;50.822;4.376;2022-10-31T14:42:40;19.70;99.90
23827;DHT22;12094;50.822;4.376;2022-10-31T14:48:24;19.60;99.90
23827;DHT22;12094;50.822;4.376;2022-10-31T14:50:59;19.40;99.90
23827;DHT22;12094;50.822;4.376;2022-10-31T14:53:44;19.40;99.90
23827;DHT22;12094;50.822;4.376;2022-10-31T14:56:29;19.30;99.90
23827;DHT22;12094;50.822;4.376;2022-10-31T14:59:00;19.20;99.90
23827;DHT22;12094;50.822;4.376;2022-10-31T15:01:32;19.30;99.90
23827;DHT22;12094;50.822;4.376;2022-10-31T15:04:15;19.40;99.90
23827;DHT22;12094;50.822;4.376;2022-10-31T15:07:07;19.50;99.90
23827;DHT22;12094;50.822;4.376;2022-10-31T15:09:36;19.50;99.90
23827;DHT22;12094;50.822;4.376;2022-10-31T15:12:41;19.50;99.90
23827;DHT22;12094;50.822;4.376;2022-10-31T15:15:13;19.40;99.90
23827;DHT22;12094;50.822;4.376;2022-10-31T15:17:44;19.40;99.90
23827;DHT22;12094;50.822;4.376;2022-10-31T15:20:20;19.30;99.90
23827;DHT22;12094;50.822;4.376;2022-10-31T15:22:57;19.20;99.90
23827;DHT22;12094;50.822;4.376;2022-10-31T15:25:27;19.10;99.90
23827;DHT22;12094;50.822;4.376;2022-10-31T15:27:55;19.00;99.90
23827;DHT22;12094;50.822;4.376;2022-10-31T15:30:26;18.90;99.90
23827;DHT22;12094;50.822;4.376;2022-10-31T15:32:55;18.90;99.90
23827;DHT22;12094;50.822;4.376;2022-10-31T15:35:30;18.80;99.90
23827;DHT22;12094;50.822;4.376;2022-10-31T15:37:58;18.70;99.90
23827;DHT22;12094;50.822;4.376;2022-10-31T15:40:27;18.70;99.90
23827;DHT22;12094;50.822;4.376;2022-10-31T15:42:59;18.70;99.90
23827;DHT22;12094;50.822;4.376;2022-10-31T15:45:28;18.60;99.90
23827;DHT22;12094;50.822;4.376;2022-10-31T15:48:02;18.60;99.90
23827;DHT22;12094;50.822;4.376;2022-10-31T15:50:35;18.60;99.90
23827;DHT22;12094;50.822;4.376;2022-10-31T15:53:04;18.50;99.90
23827;DHT22;12094;50.822;4.376;2022-10-31T15:55:38;18.50;99.90
23827;DHT22;12094;50.822;4.376;2022-10-31T15:58:13;18.40;99.90
23827;DHT22;12094;50.822;4.376;2022-10-31T16:00:42;18.30;99.90
23827;DHT22;12094;50.822;4.376;2022-10-31T16:05:47;18.30;99.90
23827;DHT22;12094;50.822;4.376;2022-10-31T16:14:03;18.10;99.90
23827;DHT22;12094;50.822;4.376;2022-10-31T16:16:29;18.10;99.90
23827;DHT22;12094;50.822;4.376;2022-10-31T16:19:05;18.00;99.90
23827;DHT22;12094;50.822;4.376;2022-10-31T16:21:35;17.90;99.90
23827;DHT22;12094;50.822;4.376;2022-10-31T16:24:14;17.90;99.90
23827;DHT22;12094;50.822;4.376;2022-10-31T16:26:50;17.80;99.90
23827;DHT22;12094;50.822;4.376;2022-10-31T16:32:00;17.80;99.90
23827;DHT22;12094;50.822;4.376;2022-10-31T16:34:27;17.70;99.90
23827;DHT22;12094;50.822;4.376;2022-10-31T16:37:02;17.70;99.90
23827;DHT22;12094;50.822;4.376;2022-10-31T16:39:33;17.60;99.90
23827;DHT22;12094;50.822;4.376;2022-10-31T16:42:00;17.60;99.90
23827;DHT22;12094;50.822;4.376;2022-10-31T16:44:28;17.50;99.90
23827;DHT22;12094;50.822;4.376;2022-10-31T16:47:16;17.50;99.90
23827;DHT22;12094;50.822;4.376;2022-10-31T16:49:47;17.40;99.90
23827;DHT22;12094;50.822;4.376;2022-10-31T16:52:19;17.40;99.90
23827;DHT22;12094;50.822;4.376;2022-10-31T16:54:51;17.40;99.90
23827;DHT22;12094;50.822;4.376;2022-10-31T16:57:23;17.30;99.90
23827;DHT22;12094;50.822;4.376;2022-10-31T16:59:53;17.30;99.90
23827;DHT22;12094;50.822;4.376;2022-10-31T17:02:21;17.20;99.90
23827;DHT22;12094;50.822;4.376;2022-10-31T17:04:48;17.20;99.90
23827;DHT22;12094;50.822;4.376;2022-10-31T17:07:23;17.20;99.90
23827;DHT22;12094;50.822;4.376;2022-10-31T17:09:50;17.20;99.90
23827;DHT22;12094;50.822;4.376;2022-10-31T17:12:20;17.20;99.90
23827;DHT22;12094;50.822;4.376;2022-10-31T17:14:50;17.20;99.90
23827;DHT22;12094;50.822;4.376;2022-10-31T17:17:18;17.30;99.90
23827;DHT22;12094;50.822;4.376;2022-10-31T17:19:46;17.40;99.90
23827;DHT22;12094;50.822;4.376;2022-10-31T17:22:14;17.30;99.90
23827;DHT22;12094;50.822;4.376;2022-10-31T17:24:42;17.30;99.90
23827;DHT22;12094;50.822;4.376;2022-10-31T17:27:10;17.40;99.90
23827;DHT22;12094;50.822;4.376;2022-10-31T17:29:37;17.40;99.90
23827;DHT22;12094;50.822;4.376;2022-10-31T17:32:04;17.40;99.90
23827;DHT22;12094;50.822;4.376;2022-10-31T17:34:31;17.30;99.90
23827;DHT22;12094;50.822;4.376;2022-10-31T17:36:59;17.40;99.90
23827;DHT22;12094;50.822;4.376;2022-10-31T17:39:27;17.40;99.90
23827;DHT22;12094;50.822;4.376;2022-10-31T17:41:54;17.50;99.90
23827;DHT22;12094;50.822;4.376;2022-10-31T17:44:22;17.50;99.90
23827;DHT22;12094;50.822;4.376;2022-10-31T17:46:50;17.40;99.90
23827;DHT22;12094;50.822;4.376;2022-10-31T17:49:17;17.50;99.90
23827;DHT22;12094;50.822;4.376;2022-10-31T17:51:44;17.40;99.90
23827;DHT22;12094;50.822;4.376;2022-10-31T17:54:12;17.40;99.90
23827;DHT22;12094;50.822;4.376;2022-10-31T17:56:41;17.40;99.90
23827;DHT22;12094;50.822;4.376;2022-10-31T17:59:09;17.40;99.90
23827;DHT22;12094;50.822;4.376;2022-10-31T18:01:38;17.30;99.90
23827;DHT22;12094;50.822;4.376;2022-10-31T18:04:06;17.30;99.90
23827;DHT22;12094;50.822;4.376;2022-10-31T18:06:33;17.30;99.90
23827;DHT22;12094;50.822;4.376;2022-10-31T18:09:03;17.40;99.90
23827;DHT22;12094;50.822;4.376;2022-10-31T18:11:31;17.30;99.90
23827;DHT22;12094;50.822;4.376;2022-10-31T18:13:59;17.20;99.90
23827;DHT22;12094;50.822;4.376;2022-10-31T18:16:26;17.10;99.90
23827;DHT22;12094;50.822;4.376;2022-10-31T18:18:55;17.10;99.90
23827;DHT22;12094;50.822;4.376;2022-10-31T18:21:31;17.20;99.90
23827;DHT22;12094;50.822;4.376;2022-10-31T18:24:00;17.20;99.90
23827;DHT22;12094;50.822;4.376;2022-10-31T18:26:29;17.20;99.90
23827;DHT22;12094;50.822;4.376;2022-10-31T18:28:56;17.20;99.90
23827;DHT22;12094;50.822;4.376;2022-10-31T18:31:24;17.10;99.90
23827;DHT22;12094;50.822;4.376;2022-10-31T18:33:54;17.30;99.90
23827;DHT22;12094;50.822;4.376;2022-10-31T18:36:22;17.30;99.90